createdAt,value
2019-02-06T00:03:57.856Z,49.3
2019-02-06T00:09:03.008Z,49.3
2019-02-06T00:14:09.180Z,49.4
2019-02-06T00:19:14.898Z,49.4
2019-02-06T00:24:19.853Z,49.4
2019-02-06T00:29:24.887Z,49.5
2019-02-06T00:34:30.004Z,49.5
2019-02-06T00:39:35.733Z,49.4
2019-02-06T00:44:40.657Z,49.4
2019-02-06T00:49:45.870Z,49.5
2019-02-06T00:54:51.285Z,49.4
2019-02-06T01:00:00.385Z,49.5
2019-02-06T01:05:07.407Z,49.5
2019-02-06T01:10:12.893Z,49.5
2019-02-06T01:15:18.453Z,49.4
2019-02-06T01:20:23.775Z,49.4
2019-02-06T01:25:28.747Z,49.4
2019-02-06T01:30:34.186Z,49.3
2019-02-06T01:35:51.257Z,49.3
2019-02-06T01:40:46.501Z,49.2
2019-02-06T01:45:51.524Z,49.2
2019-02-06T01:50:56.880Z,49.2
2019-02-06T01:56:02.236Z,49.3
2019-02-06T02:01:07.913Z,49.3
2019-02-06T02:11:17.744Z,49.3
2019-02-06T02:16:22.651Z,49.4
2019-02-06T02:21:27.809Z,49.6
2019-02-06T02:26:32.882Z,49.7
2019-02-06T02:31:38.261Z,49.7
2019-02-06T02:36:44.220Z,49.8
2019-02-06T02:41:51.069Z,49.7
2019-02-06T02:46:56.639Z,49.7
2019-02-06T02:52:01.822Z,49.7
2019-02-06T02:57:07.754Z,49.7
2019-02-06T03:02:12.966Z,49.7
2019-02-06T03:07:18.057Z,49.6
2019-02-06T03:12:23.255Z,49.6
2019-02-06T03:17:29.199Z,49.4
2019-02-06T03:22:35.659Z,49.4
2019-02-06T03:27:40.532Z,49.4
2019-02-06T03:32:45.973Z,49.4
2019-02-06T03:37:51.448Z,49.5
2019-02-06T03:42:56.680Z,49.5
2019-02-06T03:53:06.187Z,49.5
2019-02-06T03:58:11.747Z,49.4
2019-02-06T04:03:16.865Z,49.4
2019-02-06T04:08:21.992Z,49.4
2019-02-06T04:13:27.984Z,49.4
2019-02-06T04:18:33.980Z,49.4
2019-02-06T04:28:43.412Z,49.5
2019-02-06T04:38:53.624Z,49.5
2019-02-06T04:44:00.207Z,49.3
2019-02-06T04:49:05.491Z,49.3
2019-02-06T04:54:12.201Z,49.5
2019-02-06T04:59:18.321Z,49.5
2019-02-06T05:04:24.220Z,49.5
2019-02-06T05:09:29.691Z,49.7
2019-02-06T05:14:35.259Z,49.7
2019-02-06T05:19:40.419Z,49.5
2019-02-06T05:24:46.380Z,49.4
2019-02-06T05:29:52.418Z,49.2
2019-02-06T05:34:57.962Z,49.2
2019-02-06T05:40:03.072Z,49.1
2019-02-06T05:45:08.936Z,49.1
2019-02-06T05:50:13.828Z,49.2
2019-02-06T05:55:20.076Z,48.9
2019-02-06T06:00:25.362Z,48.9
2019-02-06T06:05:30.504Z,49
2019-02-06T06:10:35.997Z,49.3
2019-02-06T06:15:41.306Z,49.5
2019-02-06T06:20:46.494Z,49.5
2019-02-06T06:25:51.841Z,49.5
2019-02-06T06:30:56.948Z,49.5
2019-02-06T06:36:00.560Z,49.4
2019-02-06T06:41:05.784Z,49.4
2019-02-06T06:46:11.545Z,49.4
2019-02-06T06:51:17.156Z,49.4
2019-02-06T06:56:23.507Z,49.3
2019-02-06T07:01:29.350Z,49.3
2019-02-06T07:06:35.342Z,49.2
2019-02-06T07:11:40.396Z,49.2
2019-02-06T07:16:45.524Z,49.1
2019-02-06T07:21:51.226Z,49.1
2019-02-06T07:26:56.472Z,49
2019-02-06T07:32:02.567Z,48.8
2019-02-06T07:37:09.025Z,48.8
2019-02-06T07:42:13.142Z,48.8
2019-02-06T07:47:19.232Z,48.8
2019-02-06T07:52:24.329Z,48.8
2019-02-06T08:02:33.629Z,48.9
2019-02-06T08:07:39.203Z,48.8
2019-02-06T08:12:44.389Z,48.6
2019-02-06T08:17:50.249Z,48.6
2019-02-06T08:22:55.458Z,48.7
2019-02-06T08:27:59.808Z,48.6
2019-02-06T08:33:06.530Z,48.6
2019-02-06T08:38:12.289Z,48.7
2019-02-06T08:43:17.953Z,48.6
2019-02-06T08:48:23.629Z,48.6
2019-02-06T08:53:29.291Z,48.5
2019-02-06T08:58:35.503Z,48.5
2019-02-06T09:03:40.937Z,48.5
2019-02-06T09:08:58.863Z,48.7
2019-02-06T09:13:54.427Z,48.7
2019-02-06T09:19:00.702Z,48.5
2019-02-06T09:24:06.077Z,48.6
2019-02-06T09:29:11.734Z,48.6
2019-02-06T09:34:16.784Z,48.6
2019-02-06T09:39:22.597Z,48.6
2019-02-06T09:44:29.384Z,48.5
2019-02-06T09:49:35.324Z,48.5
2019-02-06T09:54:40.538Z,48.4
2019-02-06T09:59:46.519Z,48.3
2019-02-06T10:04:52.172Z,48.3
2019-02-06T10:10:00.694Z,48.5
2019-02-06T10:15:05.867Z,48.5
2019-02-06T10:20:13.034Z,48.5
2019-02-06T10:25:18.403Z,48.5
2019-02-06T10:30:23.748Z,48.2
2019-02-06T10:35:29.257Z,48.3
2019-02-06T10:40:34.419Z,48.3
2019-02-06T10:45:39.848Z,48.5
2019-02-06T10:50:45.400Z,48.5
2019-02-06T10:55:51.947Z,48.5
2019-02-06T11:06:02.523Z,48.5
2019-02-06T11:11:07.980Z,48.4
2019-02-06T11:16:13.056Z,48.4
2019-02-06T11:21:19.042Z,48.4
2019-02-06T11:26:24.100Z,48.3
2019-02-06T11:31:30.512Z,48.4
2019-02-06T11:36:36.210Z,48.5
2019-02-06T11:41:41.669Z,48.4
2019-02-06T11:46:46.829Z,48.6
2019-02-06T11:51:52.473Z,48.6
2019-02-06T11:56:57.992Z,49
2019-02-06T12:02:03.465Z,48.9
2019-02-06T12:13:10.711Z,48.9
2019-02-06T12:18:16.266Z,49
2019-02-06T12:23:34.476Z,48.8
2019-02-06T12:28:44.185Z,48.6
2019-02-06T12:33:30.042Z,48.6
2019-02-06T12:38:35.840Z,48.9
2019-02-06T12:43:43.552Z,48.9
2019-02-06T12:48:49.044Z,48.7
2019-02-06T12:53:54.341Z,48.8
2019-02-06T12:58:59.387Z,48.7
2019-02-06T13:04:05.757Z,48.6
2019-02-06T13:09:11.394Z,48.8
2019-02-06T13:14:18.332Z,48.7
2019-02-06T13:19:24.291Z,48.7
2019-02-06T13:24:30.106Z,48.5
2019-02-06T13:29:36.862Z,48.7
2019-02-06T13:34:42.907Z,48.8
2019-02-06T13:39:48.188Z,48.7
2019-02-06T13:49:58.521Z,48.5
2019-02-06T13:55:03.680Z,48.5
2019-02-06T14:00:09.485Z,48.5
2019-02-06T14:05:15.006Z,48.6
2019-02-06T14:10:20.118Z,48.5
2019-02-06T14:15:25.558Z,48.5
2019-02-06T14:20:30.919Z,48.7
2019-02-06T14:25:36.931Z,48.8
2019-02-06T14:30:42.436Z,48.8
2019-02-06T14:35:49.979Z,48.7
2019-02-06T14:40:55.302Z,48.7
2019-02-06T14:46:04.973Z,49.4
2019-02-06T14:51:10.331Z,48.8
2019-02-06T14:56:16.531Z,48.8
2019-02-06T15:01:16.646Z,48.7
2019-02-06T15:06:21.778Z,48.8
2019-02-06T15:11:27.490Z,48.8
2019-02-06T15:16:33.083Z,48.8
2019-02-06T15:21:39.405Z,48.8
2019-02-06T15:26:44.973Z,48.8
2019-02-06T15:31:50.878Z,48.8
2019-02-06T15:36:56.256Z,48.8
2019-02-06T15:42:03.368Z,48.8
2019-02-06T15:47:09.004Z,48.8
2019-02-06T15:52:14.644Z,48.9
2019-02-06T15:57:20.010Z,49
2019-02-06T16:02:25.591Z,49
2019-02-06T16:07:32.292Z,49
2019-02-06T16:12:37.647Z,49
2019-02-06T16:17:43.765Z,49
2019-02-06T16:22:49.297Z,49
2019-02-06T16:27:55.414Z,49
2019-02-06T16:33:01.266Z,49
2019-02-06T16:38:07.118Z,48.5
2019-02-06T16:43:11.472Z,48.2
2019-02-06T16:48:17.643Z,48.2
2019-02-06T16:53:23.343Z,48.5
2019-02-06T16:58:28.978Z,48.6
2019-02-06T17:03:35.005Z,48.9
2019-02-06T17:08:44.473Z,49.2
2019-02-06T17:13:49.989Z,49.1
2019-02-06T17:18:55.489Z,49.2
2019-02-06T17:21:10.029Z,48.4
2019-02-06T17:26:13.780Z,49.4
2019-02-06T17:31:19.923Z,49
2019-02-06T17:36:25.833Z,49
2019-02-06T17:41:31.914Z,49.2
2019-02-06T17:46:37.257Z,49.2
2019-02-06T17:51:42.561Z,49
2019-02-06T17:56:47.725Z,49.5
2019-02-06T18:01:53.415Z,49.5
2019-02-06T18:06:58.428Z,48.9
2019-02-06T18:12:03.640Z,48.8
2019-02-06T18:17:09.669Z,49.1
2019-02-06T18:22:15.004Z,49.1
2019-02-06T18:27:20.117Z,49
2019-02-06T18:32:28.028Z,49.4
2019-02-06T18:37:33.859Z,49.4
2019-02-06T18:42:41.954Z,31
2019-02-06T18:45:58.804Z,31
2019-02-06T18:51:04.068Z,33.7
2019-02-06T18:56:09.610Z,37.8
2019-02-06T19:01:19.449Z,40.5
2019-02-06T19:06:25.420Z,43.1
2019-02-06T19:11:30.948Z,43.1
2019-02-06T19:16:36.726Z,44.1
2019-02-06T19:21:43.049Z,45.9
2019-02-06T19:26:49.198Z,43.9
2019-02-06T19:31:54.511Z,43.6
2019-02-06T19:36:59.656Z,43.4
2019-02-06T19:42:05.345Z,43.7
2019-02-06T19:47:10.827Z,43.7
2019-02-06T19:52:16.770Z,44.1
2019-02-06T19:57:22.368Z,44.6
2019-02-06T20:02:27.989Z,45.6
2019-02-06T20:07:34.976Z,46.2
2019-02-06T20:12:40.939Z,46.2
2019-02-06T20:17:46.246Z,46.4
2019-02-06T20:22:51.272Z,46.7
2019-02-06T20:27:56.952Z,47
2019-02-06T20:33:03.020Z,47.1
2019-02-06T20:38:08.810Z,47.3
2019-02-06T20:48:18.176Z,46.4
2019-02-06T20:53:23.585Z,46.4
2019-02-06T20:58:29.528Z,46
2019-02-06T21:03:36.317Z,46.4
2019-02-06T21:08:42.936Z,46.9
2019-02-06T21:13:48.574Z,46.9
2019-02-06T21:18:54.501Z,47.4
2019-02-06T21:24:01.456Z,47.9
2019-02-06T21:34:11.977Z,47.5
2019-02-06T21:39:17.912Z,47.3
2019-02-06T21:44:22.992Z,47.8
2019-02-06T21:49:28.492Z,48.4
2019-02-06T21:54:33.763Z,49.3
2019-02-06T21:59:39.792Z,49.3
2019-02-06T22:04:46.318Z,49.1
2019-02-06T22:09:52.262Z,49.2
2019-02-06T22:25:06.161Z,51.2
2019-02-06T22:30:12.236Z,51.4
2019-02-06T22:35:18.540Z,51.9
2019-02-06T22:40:23.632Z,51.9
2019-02-06T22:45:28.888Z,51.8
2019-02-06T22:50:34.436Z,51.8
2019-02-06T22:55:39.524Z,52.3
2019-02-06T23:00:44.786Z,52.2
2019-02-06T23:05:49.917Z,52.3
2019-02-06T23:10:55.668Z,52.3
2019-02-06T23:16:00.845Z,52.3
2019-02-06T23:21:06.513Z,52.3
2019-02-06T23:26:12.155Z,52.3
2019-02-06T23:31:17.468Z,52.2
2019-02-06T23:36:22.747Z,52.2
2019-02-06T23:41:27.939Z,52.2
2019-02-06T23:51:38.580Z,52.2
2019-02-06T23:56:45.069Z,52.1
